Terminal Aerodrome Forecast
Issued by NWS

Home | Current Version | Previous Version | Graphics & Text | Print | Product List | Glossary On
Versions: 1 2 3 4 5 6 7 8 9 10 11 12 13 14 15 16 17 18
215
FTUS43 KABR 222341 CCA
TAFMBG
TAF COR
KMBG 222341Z 2300/2324 01006KT 3SM -SN OVC015
      TEMPO 2300/2304 1SM -SN
     FM230400 09005KT 5SM -SN OVC010
     FM230700 VRB03KT P6SM OVC015
     FM231700 29004KT P6SM SKC=

USA.gov is the U.S. government's official web portal to all federal, state and local government web resources and services.